createdAt,value
2023-01-13T00:00:38.243Z,2.88
2023-01-13T00:03:07.097Z,3.15
2023-01-13T00:05:35.728Z,1.80
2023-01-13T00:08:04.949Z,1.77
2023-01-13T00:10:33.313Z,1.75
2023-01-13T00:13:04.980Z,1.73
2023-01-13T00:15:33.421Z,1.77
2023-01-13T00:18:01.815Z,1.63
2023-01-13T00:20:30.158Z,1.58
2023-01-13T00:23:00.046Z,1.80
2023-01-13T00:25:28.351Z,1.70
2023-01-13T00:27:56.691Z,1.80
2023-01-13T00:30:26.372Z,1.88
2023-01-13T00:32:54.747Z,4.25
2023-01-13T00:35:23.108Z,3.03
2023-01-13T00:37:51.432Z,1.70
2023-01-13T00:40:19.817Z,1.85
2023-01-13T00:43:05.616Z,1.92
2023-01-13T00:45:35.429Z,1.40
2023-01-13T00:48:03.742Z,1.60
2023-01-13T00:50:32.121Z,1.85
2023-01-13T00:53:01.253Z,1.60
2023-01-13T00:55:31.920Z,2.00
2023-01-13T00:58:03.517Z,1.50
2023-01-13T01:00:32.223Z,1.40
2023-01-13T01:03:02.268Z,1.42
2023-01-13T01:05:30.598Z,1.95
2023-01-13T01:07:58.940Z,2.55
2023-01-13T01:10:27.303Z,1.80
2023-01-13T01:12:55.985Z,1.42
2023-01-13T01:15:24.537Z,1.30
2023-01-13T01:17:52.816Z,1.60
2023-01-13T01:20:22.513Z,1.27
2023-01-13T01:22:50.887Z,1.30
2023-01-13T01:25:19.202Z,1.30
2023-01-13T01:27:47.513Z,1.23
2023-01-13T01:30:16.524Z,1.20
2023-01-13T01:32:44.901Z,1.35
2023-01-13T01:35:13.245Z,1.10
2023-01-13T01:37:42.956Z,1.90
2023-01-13T01:40:12.589Z,1.33
2023-01-13T01:43:12.951Z,1.30
2023-01-13T01:45:41.260Z,1.10
2023-01-13T01:48:11.037Z,1.10
2023-01-13T01:50:40.366Z,1.40
2023-01-13T01:53:14.510Z,1.20
2023-01-13T01:55:43.602Z,1.42
2023-01-13T01:58:16.385Z,1.20
2023-01-13T02:00:45.067Z,1.35
2023-01-13T02:03:14.648Z,1.00
2023-01-13T02:05:43.226Z,1.10
2023-01-13T02:08:15.049Z,1.30
2023-01-13T02:10:46.199Z,1.00
2023-01-13T02:13:13.961Z,1.00
2023-01-13T02:15:48.850Z,0.90
2023-01-13T02:18:32.649Z,1.02
2023-01-13T02:21:37.734Z,1.20
2023-01-13T02:27:55.405Z,0.80
2023-01-13T02:30:57.858Z,1.20
2023-01-13T02:33:38.979Z,1.17
2023-01-13T02:36:14.612Z,1.17
2023-01-13T02:38:51.419Z,0.98
2023-01-13T02:41:44.814Z,1.00
2023-01-13T02:44:16.685Z,0.80
2023-01-13T02:46:52.801Z,0.90
2023-01-13T02:49:29.058Z,1.00
2023-01-13T02:52:05.086Z,1.20
2023-01-13T02:54:36.981Z,1.13
2023-01-13T02:57:08.234Z,1.27
2023-01-13T02:59:37.830Z,1.10
2023-01-13T03:02:10.350Z,1.15
2023-01-13T03:04:50.914Z,1.05
2023-01-13T03:07:44.592Z,1.00
2023-01-13T03:10:27.474Z,0.93
2023-01-13T03:13:03.520Z,1.50
2023-01-13T03:15:44.260Z,1.27
2023-01-13T03:18:27.264Z,1.08
2023-01-13T03:21:05.808Z,1.10
2023-01-13T03:23:48.404Z,1.02
2023-01-13T03:26:19.936Z,1.50
2023-01-13T03:28:54.943Z,0.90
2023-01-13T03:31:29.117Z,0.90
2023-01-13T03:34:03.606Z,1.05
2023-01-13T03:36:35.351Z,0.80
2023-01-13T03:39:10.302Z,0.90
2023-01-13T03:41:45.474Z,0.88
2023-01-13T03:44:22.844Z,1.00
2023-01-13T03:47:01.426Z,0.73
2023-01-13T03:49:37.629Z,0.80
2023-01-13T03:52:10.376Z,0.90
2023-01-13T03:54:45.374Z,0.85
2023-01-13T03:57:17.087Z,1.02
2023-01-13T03:59:51.635Z,0.90
2023-01-13T04:02:28.638Z,0.65
2023-01-13T04:05:01.211Z,0.93
2023-01-13T04:07:41.076Z,1.00
2023-01-13T04:10:12.001Z,1.20
2023-01-13T04:13:04.214Z,0.98
2023-01-13T04:15:39.208Z,0.82
2023-01-13T04:18:15.905Z,0.80
2023-01-13T04:20:48.384Z,0.85
2023-01-13T04:23:17.500Z,0.70
2023-01-13T04:25:47.285Z,0.70
2023-01-13T04:28:16.470Z,0.93
2023-01-13T04:30:45.571Z,1.00
2023-01-13T04:33:15.431Z,0.98
2023-01-13T04:35:46.069Z,1.02
2023-01-13T04:38:16.894Z,0.90
2023-01-13T04:40:45.634Z,0.98
2023-01-13T04:43:15.582Z,1.00
2023-01-13T04:45:44.114Z,0.80
2023-01-13T04:48:13.161Z,0.90
2023-01-13T04:50:41.738Z,0.88
2023-01-13T04:53:12.049Z,1.23
2023-01-13T04:55:40.358Z,1.10
2023-01-13T04:58:11.236Z,1.00
2023-01-13T05:00:40.053Z,0.90
2023-01-13T05:03:08.478Z,1.08
2023-01-13T05:05:37.873Z,0.98
2023-01-13T05:08:06.786Z,0.70
2023-01-13T05:10:36.563Z,0.70
2023-01-13T05:13:22.701Z,0.90
2023-01-13T05:16:11.265Z,0.90
2023-01-13T05:18:40.294Z,0.98
2023-01-13T05:21:28.634Z,1.10
2023-01-13T05:24:14.301Z,1.10
2023-01-13T05:26:43.999Z,0.90
2023-01-13T05:29:12.324Z,1.10
2023-01-13T05:31:40.665Z,0.70
2023-01-13T05:34:08.976Z,1.10
2023-01-13T05:36:37.306Z,1.05
2023-01-13T05:39:06.113Z,1.10
2023-01-13T05:41:52.240Z,1.50
2023-01-13T05:44:22.024Z,1.40
2023-01-13T05:46:50.844Z,1.25
2023-01-13T05:49:19.193Z,1.27
2023-01-13T05:51:47.515Z,1.40
2023-01-13T05:54:16.037Z,1.08
2023-01-13T05:56:44.353Z,1.27
2023-01-13T05:59:12.838Z,1.08
2023-01-13T06:01:42.500Z,1.40
2023-01-13T06:04:11.033Z,1.50
2023-01-13T06:06:39.859Z,1.38
2023-01-13T06:09:08.208Z,0.90
2023-01-13T06:11:36.516Z,0.70
2023-01-13T06:14:05.080Z,1.17
2023-01-13T06:16:33.464Z,0.95
2023-01-13T06:19:03.223Z,1.20
2023-01-13T06:21:33.184Z,0.90
2023-01-13T06:24:02.345Z,1.27
2023-01-13T06:26:33.414Z,1.38
2023-01-13T06:29:01.737Z,2.03
2023-01-13T06:31:31.144Z,1.20
2023-01-13T06:34:03.149Z,2.67
2023-01-13T06:36:38.875Z,3.00
2023-01-13T06:39:08.888Z,4.13
2023-01-13T06:41:54.582Z,4.55
2023-01-13T06:44:24.660Z,2.55
2023-01-13T06:46:53.494Z,4.10
2023-01-13T06:49:21.992Z,4.65
2023-01-13T06:51:51.748Z,4.07
2023-01-13T06:54:20.061Z,1.88
2023-01-13T06:56:48.418Z,1.70
2023-01-13T06:59:16.881Z,2.08
2023-01-13T07:01:45.371Z,3.30
2023-01-13T07:04:14.665Z,3.03
2023-01-13T07:06:42.964Z,1.95
2023-01-13T07:09:13.976Z,2.65
2023-01-13T07:11:42.303Z,1.70
2023-01-13T07:14:28.211Z,1.42
2023-01-13T07:16:56.587Z,1.40
2023-01-13T07:19:24.955Z,2.30
2023-01-13T07:21:53.831Z,1.80
2023-01-13T07:24:23.525Z,2.15
2023-01-13T07:26:52.245Z,1.60
2023-01-13T07:29:20.605Z,1.40
2023-01-13T07:31:50.186Z,1.38
2023-01-13T07:34:18.807Z,2.67
2023-01-13T07:36:47.176Z,2.08
2023-01-13T07:39:15.728Z,2.30
2023-01-13T07:42:02.708Z,1.80
2023-01-13T07:44:31.094Z,1.40
2023-01-13T07:46:59.384Z,1.23
2023-01-13T07:49:27.890Z,1.50
2023-01-13T07:51:56.228Z,2.03
2023-01-13T07:54:39.102Z,2.00
2023-01-13T07:57:09.867Z,1.27
2023-01-13T07:59:38.181Z,1.30
2023-01-13T08:02:06.596Z,1.80
2023-01-13T08:04:35.520Z,1.50
2023-01-13T08:07:04.878Z,1.48
2023-01-13T08:09:33.226Z,1.40
2023-01-13T08:12:15.445Z,1.35
2023-01-13T08:14:45.193Z,1.40
2023-01-13T08:17:13.612Z,1.23
2023-01-13T08:19:41.946Z,1.30
2023-01-13T08:22:10.281Z,1.45
2023-01-13T08:24:38.806Z,1.10
2023-01-13T08:27:07.261Z,1.60
2023-01-13T08:29:35.667Z,1.05
2023-01-13T08:32:05.849Z,1.48
2023-01-13T08:34:34.258Z,1.92
2023-01-13T08:37:02.597Z,1.40
2023-01-13T08:39:31.142Z,1.90
2023-01-13T08:41:59.453Z,1.45
2023-01-13T08:44:30.829Z,1.70
2023-01-13T08:46:59.642Z,1.67
2023-01-13T08:49:29.398Z,1.75
2023-01-13T08:51:58.471Z,1.73
2023-01-13T08:54:26.837Z,1.80
2023-01-13T08:56:55.191Z,1.95
2023-01-13T08:59:23.604Z,1.80
2023-01-13T09:01:52.291Z,1.88
2023-01-13T09:04:23.527Z,1.98
2023-01-13T09:06:53.345Z,1.55
2023-01-13T09:09:21.839Z,1.90
2023-01-13T09:12:09.519Z,2.00
2023-01-13T09:14:39.552Z,2.00
2023-01-13T09:17:08.726Z,1.92
2023-01-13T09:19:37.660Z,4.05
2023-01-13T09:22:07.577Z,1.83
2023-01-13T09:24:35.913Z,2.20
2023-01-13T09:27:04.434Z,2.95
2023-01-13T09:29:32.837Z,2.40
2023-01-13T09:32:01.235Z,1.85
2023-01-13T09:34:47.011Z,1.80
2023-01-13T09:37:17.030Z,2.15
2023-01-13T09:39:45.448Z,1.83
2023-01-13T09:42:38.724Z,1.80
2023-01-13T09:45:10.121Z,3.20
2023-01-13T09:47:45.107Z,2.22
2023-01-13T09:50:24.837Z,2.20
2023-01-13T09:52:54.826Z,2.70
2023-01-13T09:55:30.230Z,1.85
2023-01-13T09:57:58.716Z,2.78
2023-01-13T10:00:31.681Z,2.30
2023-01-13T10:03:14.681Z,2.17
2023-01-13T10:05:49.619Z,2.38
2023-01-13T10:08:25.347Z,2.03
2023-01-13T10:10:56.996Z,1.90
2023-01-13T10:13:27.167Z,2.00
2023-01-13T10:16:19.750Z,1.70
2023-01-13T10:19:02.004Z,3.33
2023-01-13T10:21:52.097Z,1.42
2023-01-13T10:24:30.607Z,1.40
2023-01-13T10:27:05.717Z,1.90
2023-01-13T10:29:34.656Z,2.40
2023-01-13T10:32:03.403Z,1.60
2023-01-13T10:34:32.144Z,1.52
2023-01-13T10:37:02.919Z,1.63
2023-01-13T10:39:41.039Z,1.48
2023-01-13T10:42:14.849Z,1.85
2023-01-13T10:44:51.948Z,1.95
2023-01-13T10:47:26.735Z,2.08
2023-01-13T10:50:22.325Z,2.58
2023-01-13T10:53:02.058Z,2.10
2023-01-13T10:55:34.387Z,1.50
2023-01-13T10:58:17.409Z,1.80
2023-01-13T11:00:46.531Z,1.63
2023-01-13T11:03:20.625Z,1.70
2023-01-13T11:05:51.351Z,1.70
2023-01-13T11:08:21.858Z,1.90
2023-01-13T11:10:54.201Z,2.63
2023-01-13T11:13:31.709Z,1.90
2023-01-13T11:16:06.420Z,1.35
2023-01-13T11:18:51.940Z,1.60
2023-01-13T11:21:25.818Z,1.40
2023-01-13T11:24:05.095Z,1.55
2023-01-13T11:26:44.755Z,2.10
2023-01-13T11:29:21.924Z,1.73
2023-01-13T11:31:55.269Z,1.42
2023-01-13T11:34:31.497Z,1.38
2023-01-13T11:37:01.867Z,1.30
2023-01-13T11:39:41.547Z,1.55
2023-01-13T11:42:25.070Z,1.50
2023-01-13T11:45:03.665Z,1.30
2023-01-13T11:47:33.566Z,1.40
2023-01-13T11:50:03.122Z,1.40
2023-01-13T11:52:48.678Z,1.67
2023-01-13T11:55:28.214Z,1.55
2023-01-13T11:58:15.109Z,1.40
2023-01-13T12:01:10.376Z,1.35
2023-01-13T12:03:43.378Z,1.40
2023-01-13T12:06:20.915Z,1.35
2023-01-13T12:09:25.600Z,1.80
2023-01-13T12:12:22.700Z,1.50
2023-01-13T12:15:08.886Z,1.98
2023-01-13T12:17:48.373Z,2.10
2023-01-13T12:20:34.539Z,1.50
2023-01-13T12:23:12.563Z,2.40
2023-01-13T12:25:45.490Z,1.92
2023-01-13T12:28:18.881Z,1.35
2023-01-13T12:30:53.057Z,1.93
2023-01-13T12:33:30.492Z,2.30
2023-01-13T12:36:06.763Z,3.40
2023-01-13T12:38:38.236Z,1.83
2023-01-13T12:41:17.456Z,1.40
2023-01-13T12:44:07.173Z,1.73
2023-01-13T12:46:46.849Z,1.80
2023-01-13T12:49:24.417Z,1.45
2023-01-13T12:52:19.787Z,1.65
2023-01-13T12:55:20.905Z,1.60
2023-01-13T12:58:03.867Z,2.30
2023-01-13T13:00:38.047Z,1.50
2023-01-13T13:06:02.251Z,1.60
2023-01-13T13:08:48.136Z,1.60
2023-01-13T13:12:09.672Z,3.40
2023-01-13T13:15:22.364Z,3.42
2023-01-13T13:18:21.056Z,3.40
2023-01-13T13:21:03.817Z,2.33
2023-01-13T13:24:03.246Z,2.58
2023-01-13T13:26:37.957Z,2.15
2023-01-13T13:29:31.835Z,2.00
2023-01-13T13:32:30.837Z,1.58
2023-01-13T13:35:19.486Z,1.70
2023-01-13T13:38:18.697Z,1.77
2023-01-13T13:41:06.405Z,1.70
2023-01-13T13:43:59.072Z,1.88
2023-01-13T13:46:48.162Z,1.75
2023-01-13T13:49:18.039Z,2.10
2023-01-13T13:51:52.923Z,2.25
2023-01-13T13:54:23.943Z,1.80
2023-01-13T13:56:53.140Z,2.28
2023-01-13T13:59:24.461Z,2.95
2023-01-13T14:02:01.416Z,1.70
2023-01-13T14:04:32.429Z,1.70
2023-01-13T14:07:04.473Z,2.17
2023-01-13T14:09:45.099Z,2.13
2023-01-13T14:12:18.849Z,2.92
2023-01-13T14:14:48.334Z,2.72
2023-01-13T14:17:24.847Z,2.83
2023-01-13T14:19:54.801Z,1.95
2023-01-13T14:22:23.413Z,4.00
2023-01-13T14:24:55.651Z,2.08
2023-01-13T14:27:27.515Z,2.45
2023-01-13T14:29:58.304Z,2.60
2023-01-13T14:32:36.062Z,6.18
2023-01-13T14:35:07.256Z,2.88
2023-01-13T14:37:39.514Z,2.55
2023-01-13T14:40:53.235Z,2.30
2023-01-13T14:43:25.943Z,3.13
2023-01-13T14:45:57.635Z,2.90
2023-01-13T14:48:35.767Z,2.03
2023-01-13T14:51:06.804Z,2.08
2023-01-13T14:53:40.651Z,2.00
2023-01-13T14:56:43.210Z,2.10
2023-01-13T14:59:51.857Z,1.90
2023-01-13T15:02:50.090Z,4.18
2023-01-13T15:05:31.699Z,3.08
2023-01-13T15:08:03.359Z,6.00
2023-01-13T15:10:33.842Z,3.92
2023-01-13T15:13:04.929Z,2.55
2023-01-13T15:15:36.516Z,2.17
2023-01-13T15:18:14.627Z,1.92
2023-01-13T15:20:43.773Z,1.95
2023-01-13T15:23:12.490Z,2.45
2023-01-13T15:25:42.577Z,2.00
2023-01-13T15:28:18.897Z,1.95
2023-01-13T15:30:47.929Z,2.83
2023-01-13T15:33:18.177Z,2.50
2023-01-13T15:35:48.824Z,2.35
2023-01-13T15:38:19.338Z,2.70
2023-01-13T15:40:48.345Z,2.53
2023-01-13T15:43:38.554Z,1.95
2023-01-13T15:46:33.312Z,2.50
2023-01-13T15:49:10.212Z,2.50
2023-01-13T15:51:38.961Z,1.98
2023-01-13T15:54:07.922Z,2.00
2023-01-13T15:56:39.209Z,3.40
2023-01-13T15:59:16.604Z,2.50
2023-01-13T16:01:45.632Z,3.78
2023-01-13T16:04:15.509Z,3.17
2023-01-13T16:06:50.161Z,2.30
2023-01-13T16:09:18.576Z,1.80
2023-01-13T16:11:47.180Z,2.40
2023-01-13T16:14:15.551Z,2.67
2023-01-13T16:16:43.991Z,3.00
2023-01-13T16:19:13.383Z,2.13
2023-01-13T16:21:43.212Z,2.20
2023-01-13T16:24:11.615Z,2.42
2023-01-13T16:26:39.928Z,2.28
2023-01-13T16:29:09.532Z,2.08
2023-01-13T16:31:38.154Z,2.40
2023-01-13T16:34:07.174Z,2.35
2023-01-13T16:36:36.992Z,2.58
2023-01-13T16:39:21.433Z,2.10
2023-01-13T16:41:49.903Z,2.63
2023-01-13T16:44:18.369Z,2.60
2023-01-13T16:46:47.697Z,2.78
2023-01-13T16:49:17.426Z,2.55
2023-01-13T16:51:45.930Z,2.60
2023-01-13T16:54:15.617Z,2.20
2023-01-13T16:56:44.540Z,2.50
2023-01-13T16:59:14.725Z,2.30
2023-01-13T17:01:44.823Z,2.00
2023-01-13T17:04:17.042Z,2.30
2023-01-13T17:06:51.979Z,2.33
2023-01-13T17:09:23.792Z,2.20
2023-01-13T17:11:52.786Z,3.42
2023-01-13T17:14:23.291Z,3.92
2023-01-13T17:16:53.958Z,3.97
2023-01-13T17:19:24.160Z,3.00
2023-01-13T17:21:52.546Z,3.50
2023-01-13T17:24:24.699Z,3.30
2023-01-13T17:26:53.054Z,4.95
2023-01-13T17:29:23.028Z,2.85
2023-01-13T17:31:52.233Z,2.92
2023-01-13T17:34:21.901Z,2.15
2023-01-13T17:36:50.498Z,3.45
2023-01-13T17:39:21.492Z,2.60
2023-01-13T17:41:51.619Z,2.45
2023-01-13T17:44:22.143Z,2.63
2023-01-13T17:46:51.048Z,2.13
2023-01-13T17:49:22.633Z,2.25
2023-01-13T17:51:51.559Z,2.22
2023-01-13T17:54:20.424Z,2.20
2023-01-13T17:56:48.760Z,3.13
2023-01-13T17:59:20.646Z,2.63
2023-01-13T18:01:49.257Z,2.67
2023-01-13T18:04:19.183Z,2.30
2023-01-13T18:06:48.510Z,3.85
2023-01-13T18:09:17.885Z,2.90
2023-01-13T18:11:47.409Z,3.00
2023-01-13T18:14:15.882Z,2.58
2023-01-13T18:16:45.752Z,3.17
2023-01-13T18:19:31.632Z,4.15
2023-01-13T18:22:17.339Z,4.65
2023-01-13T18:25:03.132Z,4.45
2023-01-13T18:27:34.523Z,6.53
2023-01-13T18:30:04.042Z,3.30
2023-01-13T18:32:34.858Z,2.50
2023-01-13T18:35:06.933Z,4.50
2023-01-13T18:37:38.512Z,3.63
2023-01-13T18:40:09.235Z,5.53
2023-01-13T18:42:54.136Z,4.30
2023-01-13T18:45:25.226Z,8.43
2023-01-13T18:47:56.932Z,3.17
2023-01-13T18:50:25.327Z,4.10
2023-01-13T18:52:54.109Z,3.22
2023-01-13T18:55:22.719Z,4.30
2023-01-13T18:57:51.577Z,3.10
2023-01-13T19:00:21.634Z,3.40
2023-01-13T19:05:38.223Z,4.35
2023-01-13T19:08:07.186Z,3.58
2023-01-13T19:10:36.528Z,6.78
2023-01-13T19:13:05.296Z,7.70
2023-01-13T19:15:33.833Z,8.10
2023-01-13T19:18:02.174Z,6.95
2023-01-13T19:20:30.530Z,4.57
2023-01-13T19:23:00.221Z,7.95
2023-01-13T19:25:28.615Z,5.50
2023-01-13T19:27:56.918Z,3.55
2023-01-13T19:30:25.286Z,3.90
2023-01-13T19:32:53.674Z,5.97
2023-01-13T19:35:21.998Z,5.88
2023-01-13T19:37:50.381Z,7.85
2023-01-13T19:40:20.291Z,4.38
2023-01-13T19:43:06.152Z,6.78
2023-01-13T19:45:36.145Z,8.07
2023-01-13T19:48:05.829Z,5.72
2023-01-13T19:50:38.569Z,11.93
2023-01-13T19:53:07.333Z,7.93
2023-01-13T19:55:37.038Z,4.90
2023-01-13T19:58:05.546Z,2.70
2023-01-13T20:00:34.845Z,4.47
2023-01-13T20:03:06.902Z,4.05
2023-01-13T20:05:35.325Z,4.60
2023-01-13T20:08:03.685Z,4.30
2023-01-13T20:10:32.089Z,7.82
2023-01-13T20:13:01.840Z,9.25
2023-01-13T20:15:30.436Z,2.95
2023-01-13T20:18:00.486Z,2.78
2023-01-13T20:20:28.813Z,2.67
2023-01-13T20:22:58.198Z,2.50
2023-01-13T20:25:28.591Z,2.60
2023-01-13T20:27:58.473Z,5.13
2023-01-13T20:30:28.190Z,7.40
2023-01-13T20:32:56.506Z,8.02
2023-01-13T20:35:29.561Z,4.75
2023-01-13T20:37:58.268Z,2.80
2023-01-13T20:40:26.614Z,2.30
2023-01-13T20:42:54.660Z,3.80
2023-01-13T20:45:23.381Z,2.72
2023-01-13T20:47:53.087Z,4.90
2023-01-13T20:50:21.939Z,2.60
2023-01-13T20:52:52.478Z,4.05
2023-01-13T20:55:20.806Z,2.67
2023-01-13T20:57:50.303Z,4.80
2023-01-13T21:00:19.749Z,7.07
2023-01-13T21:02:48.139Z,4.70
2023-01-13T21:05:18.096Z,3.30
2023-01-13T21:07:46.477Z,3.67
2023-01-13T21:10:14.985Z,5.15
2023-01-13T21:13:00.993Z,5.85
2023-01-13T21:15:29.436Z,4.30
2023-01-13T21:18:15.168Z,5.63
2023-01-13T21:20:45.110Z,7.80
2023-01-13T21:23:13.453Z,5.63
2023-01-13T21:25:41.784Z,5.90
2023-01-13T21:28:11.689Z,3.83
2023-01-13T21:30:40.372Z,3.28
2023-01-13T21:33:09.207Z,3.85
2023-01-13T21:35:40.762Z,2.95
2023-01-13T21:38:11.719Z,2.53
2023-01-13T21:40:40.027Z,1.83
2023-01-13T21:43:30.591Z,2.42
2023-01-13T21:46:16.402Z,2.30
2023-01-13T21:48:44.799Z,2.67
2023-01-13T21:51:13.080Z,3.47
2023-01-13T21:53:42.850Z,3.33
2023-01-13T21:56:11.192Z,3.35
2023-01-13T21:58:40.038Z,2.70
2023-01-13T22:01:09.764Z,2.50
2023-01-13T22:03:54.681Z,2.70
2023-01-13T22:06:23.363Z,4.35
2023-01-13T22:08:55.483Z,3.10
2023-01-13T22:11:24.183Z,3.13
2023-01-13T22:14:09.284Z,2.30
2023-01-13T22:16:39.811Z,2.70
2023-01-13T22:19:09.536Z,2.85
2023-01-13T22:21:38.015Z,2.00
2023-01-13T22:24:08.142Z,3.90
2023-01-13T22:26:36.573Z,3.10
2023-01-13T22:29:05.003Z,5.30
2023-01-13T22:31:33.436Z,4.85
2023-01-13T22:34:01.859Z,6.97
2023-01-13T22:36:30.457Z,2.63
2023-01-13T22:39:00.436Z,5.88
2023-01-13T22:41:30.301Z,4.85
2023-01-13T22:43:58.632Z,4.90
2023-01-13T22:46:27.010Z,4.18
2023-01-13T22:48:55.894Z,3.75
2023-01-13T22:51:25.105Z,2.90
2023-01-13T22:53:53.650Z,3.28
2023-01-13T22:56:24.387Z,3.80
2023-01-13T22:58:55.985Z,3.08
2023-01-13T23:01:25.579Z,2.92
2023-01-13T23:03:54.343Z,3.38
2023-01-13T23:06:25.164Z,3.20
2023-01-13T23:08:54.271Z,3.30
2023-01-13T23:11:25.048Z,2.30
2023-01-13T23:13:59.441Z,2.13
2023-01-13T23:18:57.001Z,3.17
2023-01-13T23:21:27.043Z,2.33
2023-01-13T23:23:58.449Z,5.03
2023-01-13T23:26:27.802Z,3.78
2023-01-13T23:29:01.386Z,2.78
2023-01-13T23:31:29.816Z,2.30
2023-01-13T23:33:58.839Z,4.32
2023-01-13T23:36:29.039Z,2.13
2023-01-13T23:38:59.179Z,3.03
2023-01-13T23:41:29.410Z,2.38
2023-01-13T23:44:00.646Z,2.63
2023-01-13T23:46:30.304Z,2.58
2023-01-13T23:48:58.771Z,2.00
2023-01-13T23:51:29.896Z,2.10
2023-01-13T23:53:59.497Z,2.65
2023-01-13T23:56:30.485Z,2.88
2023-01-13T23:59:00.436Z,2.70
